createdAt,value
2017-07-14T00:00:38.589Z,1012.07
2017-07-14T00:01:19.121Z,1012.01
2017-07-14T00:01:59.656Z,1012.04
2017-07-14T00:02:40.187Z,1012.03
2017-07-14T00:03:20.722Z,1012.04
2017-07-14T00:04:01.249Z,1011.96
2017-07-14T00:04:41.812Z,1011.99
2017-07-14T00:05:22.324Z,1012.01
2017-07-14T00:06:02.876Z,1011.98
2017-07-14T00:06:43.420Z,1011.99
2017-07-14T00:07:23.929Z,1011.98
2017-07-14T00:08:04.440Z,1011.98
2017-07-14T00:08:44.969Z,1011.96
2017-07-14T00:09:25.502Z,1011.94
2017-07-14T00:10:06.023Z,1011.97
2017-07-14T00:10:46.543Z,1011.94
2017-07-14T00:11:27.085Z,1011.89
2017-07-14T00:12:07.611Z,1011.92
2017-07-14T00:12:48.152Z,1011.91
2017-07-14T00:13:28.686Z,1011.88
2017-07-14T00:14:09.196Z,1011.86
2017-07-14T00:14:49.724Z,1011.86
2017-07-14T00:15:30.265Z,1011.85
2017-07-14T00:16:10.806Z,1011.87
2017-07-14T00:16:51.343Z,1011.84
2017-07-14T00:17:31.882Z,1011.86
2017-07-14T00:18:12.396Z,1011.88
2017-07-14T00:18:52.939Z,1011.86
2017-07-14T00:19:33.478Z,1011.84
2017-07-14T00:20:14.014Z,1011.86
2017-07-14T00:20:54.560Z,1011.83
2017-07-14T00:21:35.097Z,1011.87
2017-07-14T00:22:15.633Z,1011.81
2017-07-14T00:22:56.152Z,1011.81
2017-07-14T00:23:36.672Z,1011.82
2017-07-14T00:24:17.213Z,1011.86
2017-07-14T00:24:57.784Z,1011.82
2017-07-14T00:25:38.323Z,1011.79
2017-07-14T00:26:18.859Z,1011.78
2017-07-14T00:26:59.404Z,1011.79
2017-07-14T00:27:39.940Z,1011.73
2017-07-14T00:28:20.472Z,1011.73
2017-07-14T00:29:00.998Z,1011.66
2017-07-14T00:29:41.535Z,1011.66
2017-07-14T00:30:22.080Z,1011.73
2017-07-14T00:31:02.595Z,1011.65
2017-07-14T00:31:43.141Z,1011.65
2017-07-14T00:32:23.665Z,1011.66
2017-07-14T00:33:04.214Z,1011.67
2017-07-14T00:33:44.723Z,1011.65
2017-07-14T00:34:25.271Z,1011.61
2017-07-14T00:35:05.856Z,1011.62
2017-07-14T00:35:46.371Z,1011.63
2017-07-14T00:36:26.911Z,1011.59
2017-07-14T00:37:07.447Z,1011.6
2017-07-14T00:37:47.986Z,1011.59
2017-07-14T00:38:28.514Z,1011.56
2017-07-14T00:39:09.045Z,1011.57
2017-07-14T00:39:49.583Z,1011.56
2017-07-14T00:40:30.126Z,1011.56
2017-07-14T00:41:10.650Z,1011.55
2017-07-14T00:41:51.167Z,1011.53
2017-07-14T00:42:31.709Z,1011.54
2017-07-14T00:43:12.253Z,1011.54
2017-07-14T00:43:52.777Z,1011.53
2017-07-14T00:44:33.315Z,1011.53
2017-07-14T00:45:13.866Z,1011.57
2017-07-14T00:45:54.406Z,1011.52
2017-07-14T00:46:34.951Z,1011.53
2017-07-14T00:47:15.494Z,1011.53
2017-07-14T00:47:56.039Z,1011.51
2017-07-14T00:48:36.567Z,1011.53
2017-07-14T00:49:17.095Z,1011.53
2017-07-14T00:49:57.631Z,1011.53
2017-07-14T00:50:38.167Z,1011.56
2017-07-14T00:51:18.717Z,1011.54
2017-07-14T00:51:59.271Z,1011.59
2017-07-14T00:52:39.806Z,1011.52
2017-07-14T00:53:20.321Z,1011.55
2017-07-14T00:54:00.847Z,1011.52
2017-07-14T00:54:41.383Z,1011.54
2017-07-14T00:55:21.920Z,1011.54
2017-07-14T00:56:02.428Z,1011.53
2017-07-14T00:56:42.958Z,1011.53
2017-07-14T00:57:23.496Z,1011.51
2017-07-14T00:58:04.044Z,1011.49
2017-07-14T00:58:44.574Z,1011.48
2017-07-14T00:59:25.079Z,1011.46
2017-07-14T01:00:05.609Z,1011.47
2017-07-14T01:00:46.167Z,1011.48
2017-07-14T01:01:26.699Z,1011.45
2017-07-14T01:02:07.239Z,1011.44
2017-07-14T01:02:47.776Z,1011.45
2017-07-14T01:03:28.309Z,1011.43
2017-07-14T01:04:08.859Z,1011.44
2017-07-14T01:04:49.375Z,1011.43
2017-07-14T01:05:29.912Z,1011.44
2017-07-14T01:06:10.469Z,1011.41
2017-07-14T01:06:51.002Z,1011.42
2017-07-14T01:07:31.582Z,1011.42
2017-07-14T01:08:12.103Z,1011.42
2017-07-14T01:08:52.625Z,1011.4
2017-07-14T01:09:33.142Z,1011.4
2017-07-14T01:10:13.679Z,1011.41
2017-07-14T01:10:54.205Z,1011.45
2017-07-14T01:11:34.745Z,1011.47
2017-07-14T01:12:15.225Z,1011.44
2017-07-14T01:12:55.796Z,1011.47
2017-07-14T01:13:36.314Z,1011.46
2017-07-14T01:14:16.870Z,1011.44
2017-07-14T01:14:57.401Z,1011.45
2017-07-14T01:15:37.931Z,1011.42
2017-07-14T01:16:18.452Z,1011.41
2017-07-14T01:16:58.974Z,1011.4
2017-07-14T01:17:39.490Z,1011.41
2017-07-14T01:18:20.031Z,1011.4
2017-07-14T01:19:00.572Z,1011.38
2017-07-14T01:19:41.100Z,1011.37
2017-07-14T01:20:21.622Z,1011.38
2017-07-14T01:21:02.163Z,1011.35
2017-07-14T01:21:42.689Z,1011.32
2017-07-14T01:22:23.238Z,1011.3
2017-07-14T01:23:03.768Z,1011.3
2017-07-14T01:23:44.292Z,1011.27
2017-07-14T01:24:24.818Z,1011.3
2017-07-14T01:25:05.358Z,1011.27
2017-07-14T01:25:45.898Z,1011.25
2017-07-14T01:26:26.454Z,1011.29
2017-07-14T01:27:07.055Z,1011.26
2017-07-14T01:27:47.560Z,1011.27
2017-07-14T01:28:28.090Z,1011.26
2017-07-14T01:29:08.670Z,1011.27
2017-07-14T01:29:49.192Z,1011.24
2017-07-14T01:30:29.738Z,1011.22
2017-07-14T01:31:10.264Z,1011.2
2017-07-14T01:31:50.774Z,1011.2
2017-07-14T01:32:31.305Z,1011.17
2017-07-14T01:33:11.843Z,1011.2
2017-07-14T01:33:52.372Z,1011.14
2017-07-14T01:34:32.887Z,1011.13
2017-07-14T01:35:13.441Z,1011.17
2017-07-14T01:35:53.940Z,1011.14
2017-07-14T01:36:34.495Z,1011.18
2017-07-14T01:37:15.032Z,1011.17
2017-07-14T01:37:55.558Z,1011.13
2017-07-14T01:38:36.089Z,1011.11
2017-07-14T01:39:16.632Z,1011.13
2017-07-14T01:39:57.172Z,1011.07
2017-07-14T01:40:37.697Z,1011.08
2017-07-14T01:41:18.209Z,1011.07
2017-07-14T01:41:58.724Z,1011.09
2017-07-14T01:42:39.271Z,1011.07
2017-07-14T01:43:19.823Z,1011.07
2017-07-14T01:44:00.316Z,1011.08
2017-07-14T01:44:40.855Z,1011.09
2017-07-14T01:45:21.380Z,1011.09
2017-07-14T01:46:01.951Z,1011.09
2017-07-14T01:46:42.440Z,1011.1
2017-07-14T01:47:22.995Z,1011.13
2017-07-14T01:48:03.534Z,1011.11
2017-07-14T01:48:44.082Z,1011.12
2017-07-14T01:49:24.616Z,1011.14
2017-07-14T01:50:05.134Z,1011.09
2017-07-14T01:50:45.655Z,1011.06
2017-07-14T01:51:26.146Z,1011.04
2017-07-14T01:52:06.679Z,1011.03
2017-07-14T01:52:47.282Z,1011.03
2017-07-14T01:53:27.806Z,1011.03
2017-07-14T01:54:08.305Z,1011
2017-07-14T01:54:48.815Z,1011.01
2017-07-14T01:55:29.324Z,1011
2017-07-14T01:56:09.854Z,1010.95
2017-07-14T01:56:50.375Z,1010.96
2017-07-14T01:57:30.910Z,1010.99
2017-07-14T01:58:11.429Z,1010.93
2017-07-14T01:58:51.969Z,1010.92
2017-07-14T01:59:32.511Z,1010.88
2017-07-14T02:00:13.056Z,1010.87
2017-07-14T02:00:53.577Z,1010.87
2017-07-14T02:01:34.120Z,1010.85
2017-07-14T02:02:14.634Z,1010.84
2017-07-14T02:02:55.160Z,1010.81
2017-07-14T02:03:35.708Z,1010.81
2017-07-14T02:04:16.223Z,1010.84
2017-07-14T02:04:56.736Z,1010.83
2017-07-14T02:05:37.223Z,1010.84
2017-07-14T02:06:17.741Z,1010.82
2017-07-14T02:06:58.250Z,1010.79
2017-07-14T02:07:38.751Z,1010.81
2017-07-14T02:08:19.273Z,1010.8
2017-07-14T02:08:59.777Z,1010.81
2017-07-14T02:09:40.323Z,1010.82
2017-07-14T02:10:20.810Z,1010.8
2017-07-14T02:11:01.318Z,1010.79
2017-07-14T02:11:41.791Z,1010.8
2017-07-14T02:12:22.302Z,1010.8
2017-07-14T02:13:02.836Z,1010.8
2017-07-14T02:13:43.377Z,1010.77
2017-07-14T02:14:23.925Z,1010.79
2017-07-14T02:15:04.436Z,1010.79
2017-07-14T02:15:44.922Z,1010.77
2017-07-14T02:16:25.431Z,1010.78
2017-07-14T02:17:05.923Z,1010.8
2017-07-14T02:17:46.429Z,1010.82
2017-07-14T02:18:26.927Z,1010.85
2017-07-14T02:19:07.461Z,1010.82
2017-07-14T02:19:48.008Z,1010.84
2017-07-14T02:20:28.526Z,1010.82
2017-07-14T02:21:09.064Z,1010.84
2017-07-14T02:21:49.629Z,1010.89
2017-07-14T02:22:30.141Z,1010.86
2017-07-14T02:23:10.696Z,1010.86
2017-07-14T02:23:57.903Z,1010.85
2017-07-14T02:24:38.440Z,1010.87
2017-07-14T02:25:18.970Z,1010.85
2017-07-14T02:25:59.497Z,1010.84
2017-07-14T02:26:39.996Z,1010.84
2017-07-14T02:27:20.527Z,1010.8
2017-07-14T02:28:01.005Z,1010.82
2017-07-14T02:28:41.538Z,1010.79
2017-07-14T02:29:22.037Z,1010.78
2017-07-14T02:30:02.570Z,1010.77
2017-07-14T02:30:43.112Z,1010.75
2017-07-14T02:31:23.647Z,1010.78
2017-07-14T02:32:04.183Z,1010.76
2017-07-14T02:32:44.722Z,1010.77
2017-07-14T02:33:25.270Z,1010.79
2017-07-14T02:34:05.811Z,1010.8
2017-07-14T02:34:46.356Z,1010.79
2017-07-14T02:35:26.891Z,1010.82
2017-07-14T02:36:07.475Z,1010.81
2017-07-14T02:36:48.018Z,1010.78
2017-07-14T02:37:28.546Z,1010.8
2017-07-14T02:38:09.087Z,1010.79
2017-07-14T02:38:49.615Z,1010.79
2017-07-14T02:39:30.154Z,1010.78
2017-07-14T02:40:10.701Z,1010.81
2017-07-14T02:40:51.240Z,1010.81
2017-07-14T02:41:31.781Z,1010.81
2017-07-14T02:42:12.326Z,1010.86
2017-07-14T02:42:52.874Z,1010.82
2017-07-14T02:43:33.399Z,1010.8
2017-07-14T02:44:13.928Z,1010.84
2017-07-14T02:44:54.473Z,1010.8
2017-07-14T02:45:35.008Z,1010.81
2017-07-14T02:46:15.537Z,1010.78
2017-07-14T02:46:56.052Z,1010.78
2017-07-14T02:47:36.591Z,1010.8
2017-07-14T02:48:17.141Z,1010.78
2017-07-14T02:48:57.664Z,1010.77
2017-07-14T02:49:38.195Z,1010.69
2017-07-14T02:50:18.785Z,1010.72
2017-07-14T02:50:59.326Z,1010.7
2017-07-14T02:51:39.862Z,1010.67
2017-07-14T02:52:20.401Z,1010.67
2017-07-14T02:53:00.928Z,1010.65
2017-07-14T02:53:41.465Z,1010.63
2017-07-14T02:54:22.013Z,1010.62
2017-07-14T02:55:02.556Z,1010.64
2017-07-14T02:55:43.090Z,1010.64
2017-07-14T02:56:23.640Z,1010.62
2017-07-14T02:57:04.172Z,1010.63
2017-07-14T02:57:44.707Z,1010.58
2017-07-14T02:58:25.248Z,1010.55
2017-07-14T02:59:05.766Z,1010.58
2017-07-14T02:59:46.299Z,1010.53
2017-07-14T03:00:26.863Z,1010.57
2017-07-14T03:01:07.395Z,1010.57
2017-07-14T03:01:47.964Z,1010.56
2017-07-14T03:02:28.486Z,1010.56
2017-07-14T03:03:09.029Z,1010.57
2017-07-14T03:03:49.556Z,1010.59
2017-07-14T03:04:30.076Z,1010.58
2017-07-14T03:05:10.614Z,1010.62
2017-07-14T03:05:51.150Z,1010.65
2017-07-14T03:06:31.691Z,1010.66
2017-07-14T03:07:12.226Z,1010.65
2017-07-14T03:07:52.766Z,1010.66
2017-07-14T03:08:33.290Z,1010.67
2017-07-14T03:09:13.802Z,1010.67
2017-07-14T03:09:54.341Z,1010.63
2017-07-14T03:10:34.882Z,1010.68
2017-07-14T03:11:15.420Z,1010.65
2017-07-14T03:11:55.959Z,1010.63
2017-07-14T03:12:36.490Z,1010.63
2017-07-14T03:13:17.046Z,1010.64
2017-07-14T03:13:57.564Z,1010.65
2017-07-14T03:14:38.089Z,1010.66
2017-07-14T03:15:18.636Z,1010.65
2017-07-14T03:15:59.177Z,1010.65
2017-07-14T03:16:39.713Z,1010.6
2017-07-14T03:17:20.262Z,1010.62
2017-07-14T03:18:00.829Z,1010.59
2017-07-14T03:18:41.372Z,1010.59
2017-07-14T03:19:21.917Z,1010.56
2017-07-14T03:20:02.477Z,1010.58
2017-07-14T03:20:43.020Z,1010.55
2017-07-14T03:21:23.561Z,1010.55
2017-07-14T03:22:04.088Z,1010.55
2017-07-14T03:22:44.618Z,1010.56
2017-07-14T03:23:25.163Z,1010.56
2017-07-14T03:24:05.696Z,1010.57
2017-07-14T03:24:46.234Z,1010.58
2017-07-14T03:25:26.765Z,1010.59
2017-07-14T03:26:07.286Z,1010.56
2017-07-14T03:26:47.820Z,1010.59
2017-07-14T03:27:28.352Z,1010.6
2017-07-14T03:28:08.881Z,1010.62
2017-07-14T03:28:49.394Z,1010.62
2017-07-14T03:29:29.920Z,1010.6
2017-07-14T03:30:10.436Z,1010.63
2017-07-14T03:30:50.969Z,1010.62
2017-07-14T03:31:31.515Z,1010.64
2017-07-14T03:32:12.076Z,1010.62
2017-07-14T03:32:52.616Z,1010.64
2017-07-14T03:33:33.164Z,1010.64
2017-07-14T03:34:13.676Z,1010.6
2017-07-14T03:34:54.199Z,1010.61
2017-07-14T03:35:34.773Z,1010.62
2017-07-14T03:36:15.309Z,1010.63
2017-07-14T03:36:55.838Z,1010.59
2017-07-14T03:37:36.379Z,1010.64
2017-07-14T03:38:16.938Z,1010.6
2017-07-14T03:38:57.481Z,1010.63
2017-07-14T03:39:38.016Z,1010.66
2017-07-14T03:40:18.565Z,1010.66
2017-07-14T03:40:59.112Z,1010.65
2017-07-14T03:41:39.649Z,1010.62
2017-07-14T03:42:20.183Z,1010.64
2017-07-14T03:43:00.739Z,1010.62
2017-07-14T03:43:41.238Z,1010.62
2017-07-14T03:44:21.755Z,1010.66
2017-07-14T03:45:02.298Z,1010.63
2017-07-14T03:45:42.794Z,1010.67
2017-07-14T03:46:23.349Z,1010.67
2017-07-14T03:47:03.880Z,1010.61
2017-07-14T14:33:08.703Z,1009.76
2017-07-14T14:33:49.247Z,1009.79
2017-07-14T14:34:29.780Z,1009.73
2017-07-14T14:35:10.314Z,1009.73
2017-07-14T14:35:50.869Z,1009.72
2017-07-14T14:36:31.410Z,1009.73
2017-07-14T14:37:11.956Z,1009.73
2017-07-14T14:37:52.505Z,1009.72
2017-07-14T14:38:33.076Z,1009.73
2017-07-14T14:39:13.582Z,1009.7
2017-07-14T14:39:54.128Z,1009.72
2017-07-14T14:40:34.668Z,1009.72
2017-07-14T14:41:15.222Z,1009.66
2017-07-14T14:41:55.784Z,1009.65
2017-07-14T14:42:36.263Z,1009.66
2017-07-14T14:43:16.808Z,1009.67
2017-07-14T14:43:57.331Z,1009.62
2017-07-14T14:44:39.787Z,1009.61
2017-07-14T14:45:22.023Z,1009.6
2017-07-14T14:46:06.196Z,1009.6
2017-07-14T14:46:46.749Z,1009.6
2017-07-14T14:47:27.298Z,1009.6
2017-07-14T14:48:07.843Z,1009.62
2017-07-14T14:48:48.381Z,1009.6
2017-07-14T14:49:28.926Z,1009.6
2017-07-14T14:50:09.486Z,1009.6
2017-07-14T14:50:50.013Z,1009.59
2017-07-14T14:51:30.557Z,1009.6
2017-07-14T14:52:11.103Z,1009.64
2017-07-14T14:52:51.620Z,1009.69
2017-07-14T14:53:32.177Z,1009.75
2017-07-14T14:54:12.697Z,1009.81
2017-07-14T14:54:53.225Z,1009.94
2017-07-14T14:55:33.781Z,1009.98
2017-07-14T14:56:14.327Z,1010.21
2017-07-14T14:56:54.884Z,1009.93
2017-07-14T14:57:35.430Z,1010.17
2017-07-14T14:58:15.979Z,1010.36
2017-07-14T14:58:56.516Z,1010.29
2017-07-14T14:59:37.102Z,1010.32
2017-07-14T15:00:18.072Z,1010.42
2017-07-14T15:00:59.637Z,1010.5
2017-07-14T15:01:40.527Z,1010.6
2017-07-14T15:02:21.385Z,1010.58
2017-07-14T15:03:02.135Z,1010.66
2017-07-14T15:03:42.821Z,1010.6
2017-07-14T15:04:23.368Z,1010.61
2017-07-14T15:05:03.910Z,1010.57
2017-07-14T15:05:44.478Z,1010.68
2017-07-14T15:06:25.021Z,1010.66
2017-07-14T15:07:05.555Z,1010.72
2017-07-14T15:07:46.098Z,1010.79
2017-07-14T15:08:26.638Z,1010.76
2017-07-14T15:09:07.182Z,1010.77
2017-07-14T15:09:47.727Z,1010.75
2017-07-14T15:10:28.268Z,1010.75
2017-07-14T15:11:08.812Z,1010.77
2017-07-14T15:11:49.355Z,1010.75
2017-07-14T15:12:29.893Z,1010.76
2017-07-14T15:13:10.441Z,1010.71
2017-07-14T15:13:50.984Z,1010.7
2017-07-14T15:14:31.533Z,1010.77
2017-07-14T15:15:12.074Z,1010.73
2017-07-14T15:15:52.621Z,1010.79
2017-07-14T15:16:33.167Z,1010.78
2017-07-14T15:17:13.707Z,1010.81
2017-07-14T15:17:54.250Z,1010.8
2017-07-14T15:18:34.792Z,1010.84
2017-07-14T15:19:15.330Z,1010.84
2017-07-14T15:19:55.870Z,1010.88
2017-07-14T15:20:36.410Z,1010.9
2017-07-14T15:21:16.950Z,1010.97
2017-07-14T15:21:57.492Z,1010.96
2017-07-14T15:22:38.037Z,1011.03
2017-07-14T15:23:18.578Z,1011.04
2017-07-14T15:23:59.143Z,1011.07
2017-07-14T15:24:39.681Z,1011.05
2017-07-14T15:25:20.223Z,1011.06
2017-07-14T15:26:00.792Z,1011.11
2017-07-14T15:26:41.339Z,1011.17
2017-07-14T15:27:21.895Z,1011.15
2017-07-14T15:28:02.437Z,1011.18
2017-07-14T15:28:42.964Z,1011.17
2017-07-14T15:29:23.547Z,1011.16
2017-07-14T15:30:04.093Z,1011.21
2017-07-14T15:30:44.660Z,1011.23
2017-07-14T15:31:25.270Z,1011.23
2017-07-14T15:32:05.876Z,1011.29
2017-07-14T15:32:46.470Z,1011.27
2017-07-14T15:33:27.016Z,1011.29
2017-07-14T15:34:07.559Z,1011.27
2017-07-14T15:34:48.104Z,1011.3
2017-07-14T15:35:28.638Z,1011.29
2017-07-14T15:36:09.186Z,1011.29
2017-07-14T15:36:49.730Z,1011.31
2017-07-14T15:37:30.273Z,1011.31
2017-07-14T15:38:10.819Z,1011.32
2017-07-14T15:38:51.357Z,1011.34
2017-07-14T15:39:31.904Z,1011.33
2017-07-14T15:40:12.455Z,1011.31
2017-07-14T15:40:53.008Z,1011.3
2017-07-14T15:41:33.572Z,1011.31
2017-07-14T15:42:14.105Z,1011.27
2017-07-14T15:42:54.660Z,1011.25
2017-07-14T15:43:35.209Z,1011.26
2017-07-14T15:44:15.735Z,1011.27
2017-07-14T15:44:56.279Z,1011.26
2017-07-14T15:45:36.815Z,1011.3
2017-07-14T15:46:17.360Z,1011.26
2017-07-14T15:46:57.899Z,1011.3
2017-07-14T15:47:38.451Z,1011.26
2017-07-14T15:48:19.001Z,1011.23
2017-07-14T15:48:59.540Z,1011.23
2017-07-14T15:49:40.121Z,1011.28
2017-07-14T15:50:20.658Z,1011.29
2017-07-14T15:51:01.236Z,1011.28
2017-07-14T15:51:41.787Z,1011.29
2017-07-14T15:52:22.325Z,1011.28
2017-07-14T15:53:02.872Z,1011.24
2017-07-14T15:53:43.416Z,1011.25
2017-07-14T15:54:23.958Z,1011.28
2017-07-14T15:55:04.495Z,1011.26
2017-07-14T15:55:45.032Z,1011.28
2017-07-14T15:56:25.575Z,1011.25
2017-07-14T15:57:06.107Z,1011.26
2017-07-14T15:57:46.661Z,1011.26
2017-07-14T15:58:27.200Z,1011.28
2017-07-14T15:59:07.745Z,1011.27
2017-07-14T15:59:48.288Z,1011.29
2017-07-14T16:00:28.834Z,1011.27
2017-07-14T16:01:09.394Z,1011.29
2017-07-14T16:01:49.947Z,1011.27
2017-07-14T16:02:30.487Z,1011.26
2017-07-14T16:03:11.028Z,1011.31
2017-07-14T16:03:51.571Z,1011.31
2017-07-14T16:04:32.117Z,1011.33
2017-07-14T16:05:12.672Z,1011.31
2017-07-14T16:05:53.222Z,1011.31
2017-07-14T16:06:33.762Z,1011.28
2017-07-14T16:07:14.300Z,1011.35
2017-07-14T16:07:54.845Z,1011.38
2017-07-14T16:08:35.391Z,1011.4
2017-07-14T16:09:15.952Z,1011.45
2017-07-14T16:09:56.500Z,1011.45
2017-07-14T16:10:37.045Z,1011.49
2017-07-14T16:11:17.596Z,1011.48
2017-07-14T16:11:58.126Z,1011.53
2017-07-14T16:12:38.711Z,1011.5
2017-07-14T16:13:19.257Z,1011.51
2017-07-14T16:13:59.891Z,1011.54
2017-07-14T16:14:40.342Z,1011.48
2017-07-14T16:15:20.873Z,1011.53
2017-07-14T16:16:01.424Z,1011.51
2017-07-14T16:16:42.010Z,1011.53
2017-07-14T16:17:22.564Z,1011.56
2017-07-14T16:18:03.110Z,1011.51
2017-07-14T16:18:43.654Z,1011.53
2017-07-14T16:19:24.196Z,1011.53
2017-07-14T16:20:04.729Z,1011.52
2017-07-14T16:20:45.278Z,1011.51
2017-07-14T16:21:25.823Z,1011.49
2017-07-14T16:22:06.353Z,1011.55
2017-07-14T16:22:46.902Z,1011.5
2017-07-14T16:23:27.442Z,1011.53
2017-07-14T16:24:07.957Z,1011.59
2017-07-14T16:24:48.523Z,1011.57
2017-07-14T16:25:29.071Z,1011.56
2017-07-14T16:26:09.585Z,1011.61
2017-07-14T16:26:50.135Z,1011.58
2017-07-14T16:27:30.669Z,1011.6
2017-07-14T16:28:11.222Z,1011.58
2017-07-14T16:28:51.765Z,1011.59
2017-07-14T16:29:32.320Z,1011.6
2017-07-14T16:30:12.860Z,1011.59
2017-07-14T16:30:53.404Z,1011.59
2017-07-14T16:31:33.947Z,1011.6
2017-07-14T16:32:14.478Z,1011.6
2017-07-14T16:32:55.014Z,1011.56
2017-07-14T16:33:35.579Z,1011.58
2017-07-14T16:34:16.109Z,1011.54
2017-07-14T16:34:56.663Z,1011.56
2017-07-14T16:35:37.229Z,1011.59
2017-07-14T16:36:17.789Z,1011.54
2017-07-14T16:36:58.334Z,1011.57
2017-07-14T16:37:38.856Z,1011.6
2017-07-14T16:38:19.392Z,1011.59
2017-07-14T16:38:59.951Z,1011.59
2017-07-14T16:39:40.474Z,1011.58
2017-07-14T16:40:21.022Z,1011.61
2017-07-14T16:41:01.563Z,1011.61
2017-07-14T16:41:42.110Z,1011.6
2017-07-14T16:42:22.641Z,1011.57
2017-07-14T16:43:03.192Z,1011.62
2017-07-14T16:43:43.737Z,1011.62
2017-07-14T16:44:24.274Z,1011.61
2017-07-14T16:45:04.807Z,1011.6
2017-07-14T16:45:45.347Z,1011.66
2017-07-14T16:46:25.910Z,1011.66
2017-07-14T16:47:06.423Z,1011.66
2017-07-14T16:47:46.968Z,1011.66
2017-07-14T16:48:27.508Z,1011.67
2017-07-14T16:49:08.054Z,1011.68
2017-07-14T16:49:48.606Z,1011.6
2017-07-14T16:50:29.147Z,1011.65
2017-07-14T16:51:09.690Z,1011.67
2017-07-14T16:51:50.228Z,1011.66
2017-07-14T16:52:30.771Z,1011.7
2017-07-14T16:53:11.298Z,1011.67
2017-07-14T16:53:51.850Z,1011.7
2017-07-14T16:54:32.391Z,1011.72
2017-07-14T16:55:13.140Z,1011.75
2017-07-14T16:55:53.815Z,1011.72
2017-07-14T16:56:34.345Z,1011.77
2017-07-14T16:57:14.888Z,1011.76
2017-07-14T16:57:55.574Z,1011.77
2017-07-14T16:58:36.348Z,1011.75
2017-07-14T16:59:17.195Z,1011.77
2017-07-14T16:59:58.061Z,1011.77
2017-07-14T17:00:38.730Z,1011.78
2017-07-14T17:01:19.267Z,1011.75
2017-07-14T17:01:59.809Z,1011.81
2017-07-14T17:02:40.347Z,1011.78
2017-07-14T17:03:20.888Z,1011.75
2017-07-14T17:04:01.434Z,1011.76
2017-07-14T17:04:41.972Z,1011.76
2017-07-14T17:05:22.517Z,1011.83
2017-07-14T17:06:03.059Z,1011.81
2017-07-14T17:06:43.600Z,1011.81
2017-07-14T17:07:24.149Z,1011.8
2017-07-14T17:08:04.690Z,1011.82
2017-07-14T17:08:45.231Z,1011.79
2017-07-14T17:09:25.773Z,1011.81
2017-07-14T17:10:06.314Z,1011.78
2017-07-14T17:10:46.852Z,1011.79
2017-07-14T17:11:27.402Z,1011.76
2017-07-14T17:12:07.935Z,1011.74
2017-07-14T17:12:48.477Z,1011.77
2017-07-14T17:13:29.034Z,1011.72
2017-07-14T17:14:09.579Z,1011.75
2017-07-14T17:14:50.107Z,1011.73
2017-07-14T17:15:30.656Z,1011.72
2017-07-14T17:16:11.222Z,1011.75
2017-07-14T17:16:51.768Z,1011.75
2017-07-14T17:17:32.306Z,1011.76
2017-07-14T17:18:12.848Z,1011.77
2017-07-14T17:18:53.411Z,1011.75
2017-07-14T17:19:33.968Z,1011.78
2017-07-14T17:20:14.515Z,1011.77
2017-07-14T17:20:55.027Z,1011.75
2017-07-14T17:21:35.613Z,1011.79
2017-07-14T17:22:16.096Z,1011.84
2017-07-14T17:22:58.363Z,1011.84
2017-07-14T17:23:38.916Z,1011.85
2017-07-14T17:24:19.474Z,1011.85
2017-07-14T17:25:00.003Z,1011.83
2017-07-14T17:25:40.555Z,1011.86
2017-07-14T17:26:21.091Z,1011.82
2017-07-14T17:27:01.664Z,1011.85
2017-07-14T17:27:42.209Z,1011.87
2017-07-14T17:28:22.759Z,1011.92
2017-07-14T17:29:03.276Z,1011.88
2017-07-14T17:29:43.920Z,1011.93
2017-07-14T17:30:24.450Z,1011.92
2017-07-14T17:31:04.996Z,1011.96
2017-07-14T17:31:45.530Z,1011.92
2017-07-14T17:32:26.080Z,1011.98
2017-07-14T17:33:06.619Z,1011.98
2017-07-14T17:33:47.154Z,1011.98
2017-07-14T17:34:27.771Z,1012.01
2017-07-14T17:35:08.327Z,1012.04
2017-07-14T17:35:48.872Z,1012.04
2017-07-14T17:36:29.406Z,1012.05
2017-07-14T17:37:09.956Z,1012.05
2017-07-14T17:37:50.501Z,1012.04
2017-07-14T17:38:31.039Z,1012.05
2017-07-14T17:39:11.587Z,1012.03
2017-07-14T17:39:52.130Z,1012.04
2017-07-14T17:40:32.684Z,1012
2017-07-14T17:41:13.257Z,1012.04
2017-07-14T17:41:53.784Z,1012.08
2017-07-14T17:42:34.311Z,1012.07
2017-07-14T17:43:14.850Z,1012.06
2017-07-14T17:43:55.379Z,1012.05
2017-07-14T17:44:35.925Z,1012.19
2017-07-14T17:45:16.535Z,1012.16
2017-07-14T17:45:57.184Z,1012.09
2017-07-14T17:46:37.714Z,1012.09
2017-07-14T17:47:18.251Z,1012.11
2017-07-14T17:47:58.789Z,1012.12
2017-07-14T17:48:39.313Z,1012.13
2017-07-14T17:49:19.866Z,1012.12
2017-07-14T17:50:00.401Z,1012.11
2017-07-14T17:50:41.223Z,1012.1
2017-07-14T17:51:21.741Z,1012.13
2017-07-14T17:52:02.373Z,1012.11
2017-07-14T17:52:42.987Z,1012.1
2017-07-14T17:53:23.451Z,1012.11
2017-07-14T17:54:03.993Z,1012.11
2017-07-14T17:54:44.550Z,1012.1
2017-07-14T17:55:25.101Z,1012.1
2017-07-14T17:56:05.646Z,1012.09
2017-07-14T17:56:46.185Z,1012.11
2017-07-14T17:57:26.719Z,1012.13
2017-07-14T17:58:07.262Z,1012.12
2017-07-14T17:58:47.799Z,1012.14
2017-07-14T17:59:28.343Z,1012.13
2017-07-14T18:00:08.882Z,1012.09
2017-07-14T18:00:49.425Z,1012.09
2017-07-14T18:01:29.983Z,1012.1
2017-07-14T18:02:10.532Z,1012.14
2017-07-14T18:02:51.076Z,1012.12
2017-07-14T18:03:31.627Z,1012.07
2017-07-14T18:04:12.185Z,1012.08
2017-07-14T18:04:52.748Z,1012.08
2017-07-14T18:05:33.264Z,1012.13
2017-07-14T18:06:13.807Z,1012.12
2017-07-14T18:06:54.351Z,1012.12
2017-07-14T18:07:34.888Z,1012.14
2017-07-14T18:08:15.427Z,1012.13
2017-07-14T18:08:55.952Z,1012.16
2017-07-14T18:09:36.494Z,1012.13
2017-07-14T18:10:17.046Z,1012.12
2017-07-14T18:10:57.586Z,1012.13
2017-07-14T18:11:38.165Z,1012.09
2017-07-14T18:12:18.708Z,1012.1
2017-07-14T18:12:59.249Z,1012.07
2017-07-14T18:13:39.785Z,1012.08
2017-07-14T18:14:20.347Z,1012.05
2017-07-14T18:15:00.974Z,1012.07
2017-07-14T18:15:41.531Z,1012.06
2017-07-14T18:16:22.062Z,1012.08
2017-07-14T18:17:02.596Z,1012.12
2017-07-14T18:17:43.140Z,1012.06
2017-07-14T18:18:23.674Z,1012.03
2017-07-14T18:19:04.223Z,1012.08
2017-07-14T18:19:44.850Z,1012.06
2017-07-14T18:20:25.461Z,1012.05
2017-07-14T18:21:05.953Z,1012.05
2017-07-14T18:21:46.492Z,1012.07
2017-07-14T18:22:27.038Z,1012.05
2017-07-14T18:23:07.589Z,1012.07
2017-07-14T18:23:48.131Z,1012.06
2017-07-14T18:24:28.676Z,1012.04
2017-07-14T18:25:09.232Z,1012.06
2017-07-14T18:25:49.772Z,1012.07
2017-07-14T18:26:30.319Z,1012.06
2017-07-14T18:27:10.851Z,1012.11
2017-07-14T18:27:51.392Z,1012.08
2017-07-14T18:28:31.918Z,1012.12
2017-07-14T18:29:12.455Z,1012.12
2017-07-14T18:29:52.997Z,1012.1
2017-07-14T18:30:33.530Z,1012.11
2017-07-14T18:31:14.076Z,1012.11
2017-07-14T18:31:54.605Z,1012.15
2017-07-14T18:32:35.147Z,1012.15
2017-07-14T18:33:15.698Z,1012.15
2017-07-14T18:33:56.241Z,1012.21
2017-07-14T18:34:36.778Z,1012.17
2017-07-14T18:35:17.373Z,1012.18
2017-07-14T18:35:57.879Z,1012.18
2017-07-14T18:36:38.411Z,1012.16
2017-07-14T18:37:18.932Z,1012.18
2017-07-14T18:37:59.494Z,1012.16
2017-07-14T18:38:40.019Z,1012.17
2017-07-14T18:39:20.554Z,1012.21
2017-07-14T18:40:01.095Z,1012.23
2017-07-14T18:40:41.632Z,1012.23
2017-07-14T18:41:22.169Z,1012.29
2017-07-14T18:42:02.712Z,1012.3
2017-07-14T18:42:43.281Z,1012.26
2017-07-14T18:43:23.822Z,1012.28
2017-07-14T18:44:04.365Z,1012.26
2017-07-14T18:44:44.913Z,1012.27
2017-07-14T18:45:25.456Z,1012.26
2017-07-14T18:46:05.993Z,1012.23
2017-07-14T18:46:46.530Z,1012.24
2017-07-14T18:47:27.074Z,1012.25
2017-07-14T18:48:07.609Z,1012.26
2017-07-14T18:48:48.403Z,1012.26
2017-07-14T18:49:29.021Z,1012.28
2017-07-14T18:50:09.715Z,1012.27
2017-07-14T18:50:50.260Z,1012.3
2017-07-14T18:51:30.795Z,1012.25
2017-07-14T18:52:11.338Z,1012.25
2017-07-14T18:52:51.877Z,1012.24
2017-07-14T18:53:32.414Z,1012.25
2017-07-14T18:54:12.957Z,1012.29
2017-07-14T18:54:53.505Z,1012.26
2017-07-14T18:55:34.034Z,1012.25
2017-07-14T18:56:14.561Z,1012.22
2017-07-14T18:56:55.097Z,1012.26
2017-07-14T18:57:35.637Z,1012.27
2017-07-14T18:58:16.182Z,1012.25